createdAt,value
2019-03-11T00:01:56.084Z,97122.38
2019-03-11T00:04:28.071Z,97121.54
2019-03-11T00:06:59.409Z,97114.98
2019-03-11T00:09:30.672Z,97112.57
2019-03-11T00:12:01.967Z,97114.19
2019-03-11T00:14:33.154Z,97125.34
2019-03-11T00:17:04.883Z,97116.80
2019-03-11T00:19:36.075Z,97126.35
2019-03-11T00:22:07.479Z,97124.30
2019-03-11T00:24:38.906Z,97129.08
2019-03-11T00:27:10.141Z,97138.29
2019-03-11T00:29:41.366Z,97132.23
2019-03-11T00:32:12.593Z,97141.89
2019-03-11T00:34:43.858Z,97147.52
2019-03-11T00:37:15.708Z,97143.16
2019-03-11T00:39:46.949Z,97152.10
2019-03-11T00:42:18.398Z,97146.52
2019-03-11T00:44:49.888Z,97147.50
2019-03-11T00:47:21.374Z,97145.31
2019-03-11T00:49:52.791Z,97153.52
2019-03-11T00:52:24.323Z,97144.14
2019-03-11T00:54:55.633Z,97150.53
2019-03-11T00:57:27.291Z,97146.95
2019-03-11T00:59:58.516Z,97151.92
2019-03-11T01:02:30.107Z,97149.97
2019-03-11T01:05:01.494Z,97148.57
2019-03-11T01:07:33.516Z,97144.23
2019-03-11T01:10:05.701Z,97149.08
2019-03-11T01:12:37.031Z,97137.86
2019-03-11T01:15:08.579Z,97143.13
2019-03-11T01:17:40.297Z,97142.50
2019-03-11T01:20:12.161Z,97146.80
2019-03-11T01:22:43.495Z,97139.09
2019-03-11T01:25:15.217Z,97133.66
2019-03-11T01:27:47.128Z,97132.91
2019-03-11T01:30:18.676Z,97121.41
2019-03-11T01:32:49.998Z,97119.16
2019-03-11T01:35:21.252Z,97131.50
2019-03-11T01:37:52.592Z,97127.03
2019-03-11T01:40:24.005Z,97112.30
2019-03-11T01:42:55.385Z,97119.83
2019-03-11T01:45:27.104Z,97095.75
2019-03-11T01:47:58.363Z,97106.58
2019-03-11T01:50:29.853Z,97123.80
2019-03-11T01:53:01.185Z,97122.05
2019-03-11T01:55:32.519Z,97113.48
2019-03-11T01:58:04.187Z,97109.48
2019-03-11T02:00:35.590Z,97123.70
2019-03-11T02:03:07.004Z,97130.39
2019-03-11T02:05:38.474Z,97126.56
2019-03-11T02:08:09.671Z,97125.78
2019-03-11T02:10:41.000Z,97127.98
2019-03-11T02:13:12.322Z,97133.72
2019-03-11T02:15:43.671Z,97131.01
2019-03-11T02:18:14.984Z,97119.06
2019-03-11T02:20:46.390Z,97118.12
2019-03-11T02:23:17.799Z,97108.61
2019-03-11T02:25:50.091Z,97119.42
2019-03-11T02:28:21.407Z,97114.45
2019-03-11T02:30:52.841Z,97114.94
2019-03-11T02:33:24.394Z,97111.07
2019-03-11T02:35:56.075Z,97117.10
2019-03-11T02:38:27.256Z,97113.03
2019-03-11T02:40:58.507Z,97109.18
2019-03-11T02:43:29.768Z,97117.03
2019-03-11T02:46:01.096Z,97110.17
2019-03-11T02:48:32.805Z,97105.03
2019-03-11T02:51:05.366Z,97113.82
2019-03-11T02:53:36.800Z,97105.06
2019-03-11T02:56:08.079Z,97113.64
2019-03-11T02:58:39.337Z,97104.77
2019-03-11T03:01:32.478Z,97102.15
2019-03-11T03:04:07.597Z,97094.42
2019-03-11T03:06:39.006Z,97097.34
2019-03-11T03:09:15.419Z,97094.31
2019-03-11T03:11:46.741Z,97098.61
2019-03-11T03:14:17.987Z,97095.05
2019-03-11T03:16:49.552Z,97100.05
2019-03-11T03:19:20.722Z,97103.50
2019-03-11T03:21:52.385Z,97095.02
2019-03-11T03:24:23.935Z,97096.29
2019-03-11T03:26:55.285Z,97096.55
2019-03-11T03:29:29.231Z,97095.99
2019-03-11T03:32:00.847Z,97090.16
2019-03-11T03:34:32.015Z,97090.45
2019-03-11T03:37:03.234Z,97088.34
2019-03-11T03:39:34.435Z,97084.77
2019-03-11T03:42:05.772Z,97075.77
2019-03-11T03:44:37.370Z,97082.14
2019-03-11T03:47:08.816Z,97069.89
2019-03-11T03:49:41.094Z,97063.70
2019-03-11T03:52:12.361Z,97069.56
2019-03-11T03:54:43.490Z,97061.04
2019-03-11T03:57:15.091Z,97052.88
2019-03-11T03:59:46.325Z,97052.88
2019-03-11T04:02:17.587Z,97046.97
2019-03-11T04:04:48.880Z,97040.99
2019-03-11T04:07:20.084Z,97035.02
2019-03-11T04:09:51.567Z,97032.39
2019-03-11T04:12:22.827Z,97027.19
2019-03-11T04:14:54.211Z,97029.84
2019-03-11T04:17:25.613Z,97023.72
2019-03-11T04:19:56.997Z,97029.55
2019-03-11T04:22:28.425Z,97020.98
2019-03-11T04:24:59.779Z,97020.87
2019-03-11T04:27:31.097Z,97018.73
2019-03-11T04:30:02.600Z,97016.22
2019-03-11T04:32:34.843Z,97015.78
2019-03-11T04:35:07.410Z,97008.50
2019-03-11T04:37:39.053Z,97000.48
2019-03-11T04:40:12.148Z,96994.55
2019-03-11T04:42:43.801Z,96994.14
2019-03-11T04:45:15.578Z,96987.00
2019-03-11T04:47:47.101Z,96986.23
2019-03-11T04:50:18.464Z,96976.02
2019-03-11T04:52:49.804Z,96975.70
2019-03-11T04:55:22.274Z,96969.02
2019-03-11T04:57:54.506Z,96971.94
2019-03-11T05:00:28.279Z,96969.32
2019-03-11T05:02:59.592Z,96971.03
2019-03-11T05:05:31.668Z,96959.50
2019-03-11T05:08:02.924Z,96955.77
2019-03-11T05:10:34.210Z,96945.73
2019-03-11T05:13:05.535Z,96951.67
2019-03-11T05:15:36.691Z,96938.55
2019-03-11T05:18:07.976Z,96934.39
2019-03-11T05:20:39.513Z,96931.16
2019-03-11T05:23:10.753Z,96932.97
2019-03-11T05:25:42.141Z,96932.88
2019-03-11T05:28:13.392Z,96932.88
2019-03-11T05:30:46.324Z,96927.23
2019-03-11T05:33:17.641Z,96941.54
2019-03-11T05:35:49.148Z,96925.04
2019-03-11T05:38:20.659Z,96942.91
2019-03-11T05:40:52.361Z,96949.08
2019-03-11T05:43:23.514Z,96942.17
2019-03-11T05:45:54.963Z,96942.20
2019-03-11T05:48:27.180Z,96944.99
2019-03-11T05:50:58.372Z,96941.64
2019-03-11T05:53:29.618Z,96941.63
2019-03-11T05:56:00.840Z,96939.67
2019-03-11T05:58:32.598Z,96928.78
2019-03-11T06:01:04.043Z,96915.61
2019-03-11T06:03:35.278Z,96917.80
2019-03-11T06:06:06.988Z,96903.55
2019-03-11T06:08:38.424Z,96895.88
2019-03-11T06:11:09.966Z,96894.67
2019-03-11T06:13:41.173Z,96886.78
2019-03-11T06:16:12.513Z,96888.43
2019-03-11T06:18:49.537Z,96880.14
2019-03-11T06:21:35.710Z,96870.03
2019-03-11T06:24:07.091Z,96863.42
2019-03-11T06:26:38.320Z,96870.63
2019-03-11T06:29:09.629Z,96866.02
2019-03-11T06:31:40.920Z,96866.23
2019-03-11T06:34:12.460Z,96865.46
2019-03-11T06:36:43.683Z,96856.96
2019-03-11T06:39:14.862Z,96851.86
2019-03-11T06:41:46.093Z,96842.46
2019-03-11T06:44:17.261Z,96836.55
2019-03-11T06:46:48.579Z,96834.86
2019-03-11T06:49:19.751Z,96835.86
2019-03-11T06:51:50.884Z,96834.36
2019-03-11T06:54:22.353Z,96826.67
2019-03-11T06:56:53.531Z,96839.72
2019-03-11T06:59:24.690Z,96846.69
2019-03-11T07:01:56.117Z,96839.17
2019-03-11T07:04:27.549Z,96834.78
2019-03-11T07:06:58.719Z,96820.97
2019-03-11T07:09:30.080Z,96821.72
2019-03-11T07:12:01.397Z,96814.36
2019-03-11T07:14:33.733Z,96797.61
2019-03-11T07:17:05.138Z,96800.06
2019-03-11T07:19:36.387Z,96799.77
2019-03-11T07:22:07.611Z,96799.38
2019-03-11T07:24:38.919Z,96785.89
2019-03-11T07:27:12.643Z,96787.45
2019-03-11T07:29:44.017Z,96769.09
2019-03-11T07:32:15.242Z,96787.11
2019-03-11T07:34:46.682Z,96789.23
2019-03-11T07:37:18.968Z,96807.95
2019-03-11T07:39:50.303Z,96810.07
2019-03-11T07:42:21.466Z,96831.30
2019-03-11T07:44:52.940Z,96832.52
2019-03-11T07:47:24.165Z,96887.03
2019-03-11T07:49:55.609Z,96898.57
2019-03-11T07:52:26.856Z,96912.70
2019-03-11T07:54:58.179Z,96946.35
2019-03-11T07:57:29.503Z,96946.92
2019-03-11T08:00:00.733Z,96953.28
2019-03-11T08:02:33.731Z,96941.36
2019-03-11T08:05:05.568Z,96937.50
2019-03-11T08:07:36.765Z,96962.05
2019-03-11T08:10:09.538Z,96954.81
2019-03-11T08:12:41.013Z,96933.03
2019-03-11T08:15:14.065Z,96931.84
2019-03-11T08:17:45.455Z,96927.38
2019-03-11T08:20:17.134Z,96925.42
2019-03-11T08:22:48.349Z,96930.09
2019-03-11T08:25:19.812Z,96938.22
2019-03-11T08:27:51.022Z,96934.87
2019-03-11T08:30:22.409Z,96940.77
2019-03-11T08:32:54.577Z,96936.48
2019-03-11T08:35:25.875Z,96941.98
2019-03-11T08:37:57.476Z,96944.60
2019-03-11T08:40:29.046Z,96934.16
2019-03-11T08:43:00.276Z,96930.80
2019-03-11T08:45:31.580Z,96929.34
2019-03-11T08:48:03.054Z,96946.47
2019-03-11T08:50:34.463Z,96947.08
2019-03-11T08:53:05.682Z,96959.39
2019-03-11T08:55:37.347Z,96963.84
2019-03-11T08:58:08.992Z,96975.13
2019-03-11T09:00:40.301Z,96987.66
2019-03-11T09:03:11.534Z,96970.21
2019-03-11T09:05:43.745Z,96965.25
2019-03-11T09:08:16.054Z,96974.42
2019-03-11T09:10:47.363Z,96970.50
2019-03-11T09:13:18.576Z,96976.95
2019-03-11T09:15:52.681Z,96950.62
2019-03-11T09:18:22.915Z,96938.05
2019-03-11T09:20:54.773Z,96929.16
2019-03-11T09:23:25.905Z,96946.79
2019-03-11T09:25:57.475Z,96964.42
2019-03-11T09:28:28.758Z,96967.84
2019-03-11T09:31:01.330Z,96976.33
2019-03-11T09:33:32.649Z,96976.11
2019-03-11T09:36:04.947Z,96977.86
2019-03-11T09:38:36.359Z,97000.19
2019-03-11T09:41:07.722Z,96991.00
2019-03-11T09:43:38.857Z,96991.41
2019-03-11T09:46:10.308Z,96980.04
2019-03-11T09:48:41.612Z,96988.23
2019-03-11T09:51:12.908Z,96990.09
2019-03-11T09:53:44.369Z,96991.98
2019-03-11T09:56:15.584Z,97000.30
2019-03-11T09:58:46.908Z,97001.86
2019-03-11T10:01:18.513Z,97008.64
2019-03-11T10:03:49.659Z,97010.97
2019-03-11T10:06:20.956Z,97029.37
2019-03-11T10:08:52.178Z,97024.12
2019-03-11T10:11:23.773Z,97023.78
2019-03-11T10:13:54.995Z,97013.48
2019-03-11T10:16:27.398Z,97022.25
2019-03-11T10:18:58.536Z,97015.05
2019-03-11T10:21:30.141Z,97016.45
2019-03-11T10:24:01.386Z,96989.84
2019-03-11T10:26:32.872Z,96995.45
2019-03-11T10:29:04.094Z,97005.52
2019-03-11T10:31:35.734Z,97008.23
2019-03-11T10:34:07.036Z,97012.33
2019-03-11T10:36:38.281Z,97016.33
2019-03-11T10:39:09.661Z,97017.64
2019-03-11T10:41:41.216Z,97013.80
2019-03-11T10:44:12.517Z,97026.14
2019-03-11T10:46:45.035Z,97025.01
2019-03-11T10:49:16.325Z,97032.86
2019-03-11T10:51:47.615Z,97022.47
2019-03-11T10:54:18.856Z,97025.06
2019-03-11T10:56:50.143Z,97031.34
2019-03-11T10:59:21.305Z,97043.03
2019-03-11T11:01:52.750Z,97044.05
2019-03-11T11:04:23.969Z,97045.39
2019-03-11T11:06:55.327Z,97059.14
2019-03-11T11:09:27.892Z,97063.20
2019-03-11T11:11:59.046Z,97055.65
2019-03-11T11:14:30.220Z,97045.83
2019-03-11T11:17:01.795Z,97042.14
2019-03-11T11:19:33.451Z,97049.72
2019-03-11T11:22:04.868Z,97045.76
2019-03-11T11:24:36.087Z,97048.17
2019-03-11T11:27:09.049Z,97049.30
2019-03-11T11:29:40.202Z,97057.77
2019-03-11T11:32:11.739Z,97041.14
2019-03-11T11:34:42.898Z,97051.73
2019-03-11T11:37:15.173Z,97042.27
2019-03-11T11:39:46.689Z,97050.58
2019-03-11T11:42:17.852Z,97041.10
2019-03-11T11:44:49.409Z,97030.04
2019-03-11T11:47:20.644Z,97042.70
2019-03-11T11:49:51.790Z,97048.05
2019-03-11T11:52:22.939Z,97057.74
2019-03-11T11:54:54.245Z,97083.33
2019-03-11T11:57:26.124Z,97075.40
2019-03-11T11:59:57.383Z,97088.61
2019-03-11T12:02:28.783Z,97092.74
2019-03-11T12:04:59.919Z,97111.02
2019-03-11T12:07:31.231Z,97113.97
2019-03-11T12:10:02.573Z,97111.39
2019-03-11T12:12:34.198Z,97118.05
2019-03-11T12:15:06.645Z,97102.98
2019-03-11T12:17:37.981Z,97107.90
2019-03-11T12:20:12.540Z,97107.95
2019-03-11T12:22:44.229Z,97104.10
2019-03-11T12:25:17.073Z,97101.65
2019-03-11T12:27:53.643Z,97108.60
2019-03-11T12:30:23.946Z,97110.38
2019-03-11T12:32:55.454Z,97113.03
2019-03-11T12:35:27.080Z,97125.97
2019-03-11T12:37:58.477Z,97118.19
2019-03-11T12:40:30.613Z,97110.84
2019-03-11T12:43:01.913Z,97109.12
2019-03-11T12:45:33.136Z,97106.83
2019-03-11T12:48:04.424Z,97084.16
2019-03-11T12:50:35.823Z,97079.19
2019-03-11T12:53:07.602Z,97070.33
2019-03-11T12:55:39.251Z,97080.11
2019-03-11T12:58:10.963Z,97084.64
2019-03-11T13:00:42.345Z,97083.67
2019-03-11T13:03:13.722Z,97091.42
2019-03-11T13:05:44.949Z,97091.03
2019-03-11T13:08:16.201Z,97090.98
2019-03-11T13:10:47.741Z,97097.00
2019-03-11T13:13:19.371Z,97083.63
2019-03-11T13:15:51.326Z,97101.01
2019-03-11T13:18:53.392Z,97109.16
2019-03-11T13:21:34.544Z,97111.66
2019-03-11T13:24:05.933Z,97111.05
2019-03-11T13:26:37.175Z,97110.30
2019-03-11T13:29:08.513Z,97123.67
2019-03-11T13:31:39.733Z,97102.78
2019-03-11T13:34:11.207Z,97098.59
2019-03-11T13:36:42.495Z,97093.17
2019-03-11T13:39:14.129Z,97094.55
2019-03-11T13:41:45.341Z,97102.64
2019-03-11T13:44:16.679Z,97083.03
2019-03-11T13:46:47.819Z,97104.36
2019-03-11T13:49:19.492Z,97117.76
2019-03-11T13:51:50.724Z,97106.95
2019-03-11T13:54:22.089Z,97106.02
2019-03-11T13:56:53.467Z,97095.05
2019-03-11T13:59:24.712Z,97089.11
2019-03-11T14:01:56.020Z,97092.39
2019-03-11T14:04:27.261Z,97102.94
2019-03-11T14:06:58.756Z,97113.25
2019-03-11T14:09:30.153Z,97111.04
2019-03-11T14:12:01.348Z,97113.10
2019-03-11T14:14:32.638Z,97122.23
2019-03-11T14:17:04.230Z,97124.86
2019-03-11T14:19:35.568Z,97111.41
2019-03-11T14:22:06.962Z,97135.44
2019-03-11T14:24:38.181Z,97122.94
2019-03-11T14:27:09.478Z,97140.55
2019-03-11T14:29:40.634Z,97121.53
2019-03-11T14:32:12.873Z,97128.19
2019-03-11T14:34:45.231Z,97131.84
2019-03-11T14:37:16.600Z,97127.09
2019-03-11T14:39:47.896Z,97129.80
2019-03-11T14:42:19.191Z,97131.47
2019-03-11T14:44:50.413Z,97132.67
2019-03-11T14:47:21.988Z,97130.05
2019-03-11T14:49:53.138Z,97134.80
2019-03-11T14:52:24.836Z,97146.09
2019-03-11T14:54:55.984Z,97145.56
2019-03-11T14:57:27.455Z,97157.92
2019-03-11T14:59:58.930Z,97152.52
2019-03-11T15:02:30.234Z,97155.66
2019-03-11T15:05:01.479Z,97165.77
2019-03-11T15:07:32.839Z,97173.23
2019-03-11T15:10:04.553Z,97155.91
2019-03-11T15:12:36.020Z,97158.35
2019-03-11T15:15:09.804Z,97161.16
2019-03-11T15:17:41.161Z,97169.02
2019-03-11T15:20:13.106Z,97166.16
2019-03-11T15:22:44.501Z,97172.44
2019-03-11T15:25:16.120Z,97163.25
2019-03-11T15:27:47.501Z,97178.16
2019-03-11T15:30:19.235Z,97181.69
2019-03-11T15:32:50.952Z,97181.72
2019-03-11T15:35:22.476Z,97188.89
2019-03-11T15:37:54.106Z,97201.95
2019-03-11T15:40:25.480Z,97200.70
2019-03-11T15:42:56.743Z,97195.98
2019-03-11T15:45:38.519Z,97213.05
2019-03-11T15:48:05.166Z,97208.38
2019-03-11T15:50:36.778Z,97209.63
2019-03-11T15:53:08.460Z,97196.48
2019-03-11T15:55:39.958Z,97207.44
2019-03-11T15:58:11.194Z,97211.19
2019-03-11T16:00:42.613Z,97208.86
2019-03-11T16:03:13.981Z,97221.25
2019-03-11T16:05:45.215Z,97226.13
2019-03-11T16:08:16.632Z,97242.02
2019-03-11T16:10:49.059Z,97243.09
2019-03-11T16:13:20.448Z,97254.27
2019-03-11T16:15:51.774Z,97258.88
2019-03-11T16:18:23.494Z,97251.00
2019-03-11T16:20:54.797Z,97258.16
2019-03-11T16:23:26.065Z,97252.91
2019-03-11T16:25:57.549Z,97255.78
2019-03-11T16:28:28.830Z,97258.00
2019-03-11T16:31:00.471Z,97252.20
2019-03-11T16:33:34.036Z,97250.45
2019-03-11T16:36:05.064Z,97259.63
2019-03-11T16:38:36.990Z,97254.94
2019-03-11T16:41:08.318Z,97250.84
2019-03-11T16:43:40.196Z,97266.02
2019-03-11T16:46:11.603Z,97269.11
2019-03-11T16:48:43.203Z,97278.43
2019-03-11T16:51:14.598Z,97285.56
2019-03-11T16:53:46.060Z,97280.58
2019-03-11T16:56:17.497Z,97304.34
2019-03-11T16:58:48.772Z,97297.44
2019-03-11T17:01:20.285Z,97299.04
2019-03-11T17:03:51.600Z,97299.14
2019-03-11T17:06:22.884Z,97297.67
2019-03-11T17:08:54.109Z,97308.14
2019-03-11T17:11:25.368Z,97309.63
2019-03-11T17:13:56.780Z,97305.24
2019-03-11T17:16:28.269Z,97306.25
2019-03-11T17:18:59.522Z,97312.11
2019-03-11T17:21:30.779Z,97309.91
2019-03-11T17:24:02.352Z,97323.56
2019-03-11T17:26:33.878Z,97338.52
2019-03-11T17:29:06.245Z,97336.09
2019-03-11T17:31:37.567Z,97351.61
2019-03-11T17:34:08.927Z,97359.83
2019-03-11T17:36:40.232Z,97362.34
2019-03-11T17:39:12.490Z,97361.66
2019-03-11T17:41:44.540Z,97355.78
2019-03-11T17:44:15.847Z,97362.84
2019-03-11T17:46:47.210Z,97362.50
2019-03-11T17:49:18.473Z,97372.54
2019-03-11T17:51:50.267Z,97376.33
2019-03-11T17:54:22.601Z,97383.86
2019-03-11T17:56:54.391Z,97384.96
2019-03-11T17:59:25.602Z,97380.39
2019-03-11T18:01:57.983Z,97385.94
2019-03-11T18:04:29.353Z,97398.94
2019-03-11T18:07:01.986Z,97408.08
2019-03-11T18:09:33.396Z,97407.59
2019-03-11T18:12:05.164Z,97416.50
2019-03-11T18:14:36.505Z,97417.41
2019-03-11T18:17:08.074Z,97412.16
2019-03-11T18:19:39.722Z,97425.58
2019-03-11T18:22:11.094Z,97423.72
2019-03-11T18:24:42.336Z,97439.69
2019-03-11T18:27:13.484Z,97442.63
2019-03-11T18:29:44.903Z,97453.52
2019-03-11T18:32:16.452Z,97444.58
2019-03-11T18:34:47.669Z,97453.00
2019-03-11T18:37:19.008Z,97442.52
2019-03-11T18:39:50.210Z,97441.45
2019-03-11T18:42:26.305Z,97444.00
2019-03-11T18:44:54.633Z,97443.36
2019-03-11T18:47:25.852Z,97451.27
2019-03-11T18:49:57.067Z,97448.72
2019-03-11T18:52:28.425Z,97457.08
2019-03-11T18:54:59.631Z,97456.63
2019-03-11T18:57:31.164Z,97461.28
2019-03-11T19:00:02.806Z,97466.97
2019-03-11T19:02:36.394Z,97472.07
2019-03-11T19:05:09.224Z,97463.06
2019-03-11T19:07:40.437Z,97474.17
2019-03-11T19:10:12.476Z,97477.70
2019-03-11T19:12:43.835Z,97473.05
2019-03-11T19:15:16.483Z,97481.58
2019-03-11T19:17:48.153Z,97486.09
2019-03-11T19:20:19.917Z,97478.30
2019-03-11T19:22:51.281Z,97483.98
2019-03-11T19:25:22.951Z,97487.75
2019-03-11T19:27:55.172Z,97486.72
2019-03-11T19:30:26.693Z,97485.98
2019-03-11T19:32:58.057Z,97491.61
2019-03-11T19:35:29.457Z,97485.39
2019-03-11T19:38:01.155Z,97487.55
2019-03-11T19:40:32.489Z,97485.11
2019-03-11T19:43:04.402Z,97497.99
2019-03-11T19:45:35.989Z,97495.00
2019-03-11T19:48:07.661Z,97495.25
2019-03-11T19:50:39.099Z,97496.38
2019-03-11T19:53:10.340Z,97499.75
2019-03-11T19:55:41.654Z,97507.79
2019-03-11T19:58:13.646Z,97500.83
2019-03-11T20:00:47.350Z,97502.16
2019-03-11T20:03:25.145Z,97511.75
2019-03-11T20:05:53.913Z,97501.42
2019-03-11T20:08:25.135Z,97500.92
2019-03-11T20:10:56.783Z,97498.09
2019-03-11T20:13:28.072Z,97507.09
2019-03-11T20:16:00.394Z,97494.80
2019-03-11T20:18:31.609Z,97503.31
2019-03-11T20:21:02.932Z,97485.89
2019-03-11T20:23:34.482Z,97508.16
2019-03-11T20:26:06.076Z,97495.61
2019-03-11T20:28:37.430Z,97495.56
2019-03-11T20:31:08.856Z,97498.41
2019-03-11T20:33:40.306Z,97495.61
2019-03-11T20:36:20.957Z,97495.95
2019-03-11T20:38:44.741Z,97502.33
2019-03-11T20:41:16.149Z,97497.62
2019-03-11T20:43:47.667Z,97499.02
2019-03-11T20:46:18.898Z,97503.66
2019-03-11T20:48:50.207Z,97507.14
2019-03-11T20:51:21.456Z,97513.30
2019-03-11T20:53:52.738Z,97516.19
2019-03-11T20:56:24.245Z,97512.52
2019-03-11T20:58:55.428Z,97522.41
2019-03-11T21:01:26.749Z,97518.20
2019-03-11T21:03:58.706Z,97511.21
2019-03-11T21:06:30.064Z,97513.56
2019-03-11T21:09:01.469Z,97507.39
2019-03-11T21:11:34.470Z,97501.37
2019-03-11T21:14:08.632Z,97502.19
2019-03-11T21:16:39.160Z,97509.00
2019-03-11T21:19:10.390Z,97512.56
2019-03-11T21:21:41.679Z,97499.69
2019-03-11T21:24:13.969Z,97507.07
2019-03-11T21:26:46.300Z,97497.08
2019-03-11T21:29:17.906Z,97506.92
2019-03-11T21:31:49.572Z,97498.50
2019-03-11T21:34:21.003Z,97495.28
2019-03-11T21:36:52.420Z,97485.97
2019-03-11T21:39:24.029Z,97488.91
2019-03-11T21:41:55.387Z,97494.59
2019-03-11T21:44:26.928Z,97503.91
2019-03-11T21:46:58.194Z,97505.94
2019-03-11T21:49:29.349Z,97499.44
2019-03-11T21:52:00.610Z,97496.06
2019-03-11T21:54:32.479Z,97502.84
2019-03-11T21:57:04.063Z,97501.52
2019-03-11T21:59:35.361Z,97486.83
2019-03-11T22:02:06.677Z,97488.05
2019-03-11T22:04:37.916Z,97490.79
2019-03-11T22:07:09.216Z,97487.11
2019-03-11T22:09:40.895Z,97490.50
2019-03-11T22:12:12.198Z,97492.70
2019-03-11T22:14:44.415Z,97482.17
2019-03-11T22:17:15.930Z,97485.19
2019-03-11T22:19:47.228Z,97493.58
2019-03-11T22:22:18.615Z,97483.88
2019-03-11T22:24:49.874Z,97486.75
2019-03-11T22:27:21.030Z,97484.44
2019-03-11T22:29:52.238Z,97474.41
2019-03-11T22:32:23.759Z,97479.87
2019-03-11T22:34:54.914Z,97465.84
2019-03-11T22:37:26.125Z,97480.22
2019-03-11T22:39:57.408Z,97476.70
2019-03-11T22:42:28.767Z,97474.84
2019-03-11T22:44:59.914Z,97460.42
2019-03-11T22:47:31.282Z,97466.31
2019-03-11T22:50:02.511Z,97483.42
2019-03-11T22:52:33.654Z,97464.11
2019-03-11T22:55:05.493Z,97474.14
2019-03-11T22:57:38.161Z,97469.09
2019-03-11T23:00:16.795Z,97477.31
2019-03-11T23:02:50.599Z,97472.34
2019-03-11T23:05:21.966Z,97474.33
2019-03-11T23:07:53.324Z,97469.00
2019-03-11T23:10:24.689Z,97455.06
2019-03-11T23:12:55.984Z,97443.00
2019-03-11T23:15:27.346Z,97469.44
2019-03-11T23:17:58.600Z,97466.09
2019-03-11T23:20:29.914Z,97459.14
2019-03-11T23:23:01.055Z,97468.69
2019-03-11T23:25:33.260Z,97478.67
2019-03-11T23:28:04.702Z,97473.62
2019-03-11T23:30:36.070Z,97453.38
2019-03-11T23:33:07.387Z,97488.31
2019-03-11T23:35:38.627Z,97489.23
2019-03-11T23:38:09.779Z,97502.57
2019-03-11T23:40:41.073Z,97500.41
2019-03-11T23:43:12.456Z,97506.70
2019-03-11T23:45:43.710Z,97502.84
2019-03-11T23:48:15.188Z,97518.05
2019-03-11T23:50:46.372Z,97527.97
2019-03-11T23:53:17.637Z,97525.19
2019-03-11T23:55:48.972Z,97520.56
2019-03-11T23:58:20.213Z,97529.14
